Time;durP1;ratioP1;P1;durP2;ratioP2;P2;SDS_P1;SDS_P2;PMS_P1;PMS_P2;Temp;Humidity;BMP_temperature;BMP_pressure;BME280_temperature;BME280_humidity;BME280_pressure;Samples;Min_cycle;Max_cycle;Signal;HPM_P1;HPM_P2
2021/06/05 00:00:17;;;;;;;9.20;5.87;;;;;;;19.26;57.70;99748.56;4981156;28;20336;-84
2021/06/05 00:02:44;;;;;;;6.57;5.60;;;;;;;18.97;58.58;99741.25;4973594;28;20225;-81
2021/06/05 00:05:12;;;;;;;6.20;5.80;;;;;;;18.74;59.85;99739.88;4985121;28;20641;-83
2021/06/05 00:07:39;;;;;;;6.43;5.93;;;;;;;18.59;60.36;99748.00;4997448;28;20315;-81
2021/06/05 00:10:09;;;;;;;6.50;6.00;;;;;;;18.44;61.28;99740.63;4996832;28;20239;-83
2021/06/05 00:12:36;;;;;;;7.10;6.47;;;;;;;18.09;62.34;99737.81;4980168;28;20239;-80
2021/06/05 00:15:24;;;;;;;8.33;6.20;;;;;;;17.87;63.35;99741.50;4979521;28;20266;-82
2021/06/05 00:17:51;;;;;;;8.13;6.33;;;;;;;17.71;64.20;99739.00;4980290;28;20631;-80
2021/06/05 00:20:21;;;;;;;7.70;6.27;;;;;;;17.60;64.75;99740.84;5013474;28;20247;-85
2021/06/05 00:22:48;;;;;;;7.93;6.53;;;;;;;17.51;64.96;99732.34;4999643;28;20234;-80
2021/06/05 00:25:16;;;;;;;7.43;6.53;;;;;;;17.45;65.34;99732.59;5013920;28;20315;-81
2021/06/05 00:27:43;;;;;;;7.27;6.67;;;;;;;17.28;65.93;99723.81;4998173;28;20236;-80
2021/06/05 00:30:10;;;;;;;7.50;6.80;;;;;;;17.17;66.33;99725.63;4981467;28;20231;-85
2021/06/05 00:32:37;;;;;;;7.70;6.67;;;;;;;17.05;66.94;99725.00;4981852;28;20508;-80
2021/06/05 00:35:05;;;;;;;9.07;6.50;;;;;;;16.99;67.29;99731.44;4981843;28;20309;-85
2021/06/05 00:37:32;;;;;;;7.47;6.70;;;;;;;16.86;67.85;99724.59;4997866;28;20231;-84
2021/06/05 00:39:58;;;;;;;7.60;7.00;;;;;;;16.76;68.59;99718.28;4997726;28;20297;-81
2021/06/05 00:42:25;;;;;;;7.30;6.70;;;;;;;16.68;68.89;99714.97;4981386;28;20234;-81
2021/06/05 00:44:52;;;;;;;7.93;7.00;;;;;;;16.59;69.34;99705.69;4997977;28;20230;-82
2021/06/05 00:47:19;;;;;;;8.00;7.40;;;;;;;16.61;69.02;99710.88;4981840;28;20250;-80
2021/06/05 00:49:46;;;;;;;8.13;7.33;;;;;;;16.60;68.88;99710.03;4997550;28;20311;-85
2021/06/05 00:52:16;;;;;;;7.63;6.97;;;;;;;16.59;69.16;99715.69;4981292;28;20314;-81
2021/06/05 00:54:43;;;;;;;8.37;7.57;;;;;;;16.38;70.07;99700.34;4981439;28;20664;-85
2021/06/05 00:57:10;;;;;;;8.40;7.60;;;;;;;16.25;70.34;99699.66;4981753;28;20231;-80
2021/06/05 00:59:38;;;;;;;8.00;7.20;;;;;;;16.24;70.72;99698.00;4981396;28;20238;-85
2021/06/05 01:02:07;;;;;;;7.23;6.57;;;;;;;16.24;71.02;99713.41;5013509;28;20240;-86
2021/06/05 01:04:36;;;;;;;8.23;7.53;;;;;;;16.24;71.23;99708.81;4997603;28;20299;-80
2021/06/05 01:07:07;;;;;;;7.77;7.03;;;;;;;16.17;71.88;99707.41;4981498;28;20580;-86
2021/06/05 01:09:46;;;;;;;7.70;7.00;;;;;;;16.12;71.62;99710.88;5013341;28;20223;-82
2021/06/05 01:12:51;;;;;;;7.73;6.93;;;;;;;16.04;71.86;99708.63;4981794;28;20307;-83
2021/06/05 01:15:27;;;;;;;7.47;6.77;;;;;;;15.99;72.13;99707.75;4997487;28;20304;-80
2021/06/05 01:18:01;;;;;;;7.83;7.00;;;;;;;15.80;72.53;99691.88;4997295;28;20338;-85
2021/06/05 01:20:43;;;;;;;7.77;7.00;;;;;;;15.81;72.99;99696.22;4981479;28;20231;-85
2021/06/05 01:23:38;;;;;;;8.03;7.27;;;;;;;15.78;72.76;99698.56;4981184;28;20651;-80
2021/06/05 01:26:39;;;;;;;7.90;7.30;;;;;;;15.70;72.88;99691.72;4996612;28;20249;-85
2021/06/05 01:29:14;;;;;;;8.50;7.73;;;;;;;15.65;73.21;99697.06;4964732;28;21238;-80
2021/06/05 01:31:50;;;;;;;8.70;7.80;;;;;;;15.54;73.52;99691.81;4997193;28;20549;-86
2021/06/05 01:34:18;;;;;;;7.83;7.13;;;;;;;15.50;73.81;99696.00;4963716;28;20235;-87
2021/06/05 01:36:50;;;;;;;8.90;8.07;;;;;;;15.44;74.20;99695.94;4981015;28;20263;-86
2021/06/05 01:39:20;;;;;;;8.83;8.07;;;;;;;15.41;74.12;99695.63;4980700;28;20895;-82
2021/06/05 01:41:49;;;;;;;8.83;8.03;;;;;;;15.41;74.00;99701.84;4997153;28;20657;-83
2021/06/05 01:44:18;;;;;;;8.50;7.80;;;;;;;15.33;74.63;99706.88;4964646;28;20235;-85
2021/06/05 01:46:47;;;;;;;9.33;8.43;;;;;;;15.23;74.82;99690.53;4996854;28;20313;-84
2021/06/05 01:49:19;;;;;;;9.07;8.37;;;;;;;15.31;74.70;99698.19;4965277;28;20314;-85
2021/06/05 01:51:56;;;;;;;9.53;8.63;;;;;;;15.27;74.80;99692.47;4997006;28;20282;-86
2021/06/05 01:54:37;;;;;;;9.20;8.50;;;;;;;15.23;74.99;99694.03;4980487;28;20233;-84
2021/06/05 01:57:08;;;;;;;10.03;9.20;;;;;;;15.26;74.63;99687.31;4996350;28;20250;-81
2021/06/05 02:00:08;;;;;;;9.80;9.00;;;;;;;15.12;75.37;99699.53;4978042;28;20230;-84
2021/06/05 02:02:51;;;;;;;10.00;9.10;;;;;;;15.11;75.45;99692.50;4982445;28;20590;-83
2021/06/05 02:05:30;;;;;;;9.43;8.57;;;;;;;15.05;75.68;99697.00;4981566;28;20229;-83
2021/06/05 02:08:02;;;;;;;10.10;9.20;;;;;;;14.98;76.03;99682.84;4980443;28;20230;-82
2021/06/05 02:10:31;;;;;;;9.70;8.87;;;;;;;14.92;76.60;99690.09;4996435;28;20688;-87
2021/06/05 02:13:03;;;;;;;10.00;9.00;;;;;;;14.88;76.58;99686.22;4980828;28;20285;-86
2021/06/05 02:15:48;;;;;;;9.80;9.00;;;;;;;14.80;76.42;99675.03;4997225;28;20707;-83
2021/06/05 02:18:20;;;;;;;10.17;9.37;;;;;;;14.85;76.36;99688.59;4995793;28;20647;-82
2021/06/05 02:20:58;;;;;;;9.73;8.83;;;;;;;14.77;76.37;99681.75;4964910;28;20318;-85
2021/06/05 02:23:33;;;;;;;9.63;8.73;;;;;;;14.71;76.82;99676.50;4979934;28;20721;-82
2021/06/05 02:26:01;;;;;;;9.53;8.73;;;;;;;14.60;77.00;99669.31;4979593;28;20232;-80
2021/06/05 02:28:28;;;;;;;10.20;9.40;;;;;;;14.63;77.31;99675.03;4995862;28;20653;-86
2021/06/05 02:30:56;;;;;;;9.93;9.10;;;;;;;14.62;77.34;99676.09;4979786;28;20261;-83
2021/06/05 02:33:23;;;;;;;9.80;9.00;;;;;;;14.60;77.03;99677.41;4995993;28;20241;-86
2021/06/05 02:35:54;;;;;;;11.13;9.37;;;;;;;14.48;77.16;99669.38;4995675;28;20326;-82
2021/06/05 02:38:34;;;;;;;9.87;9.07;;;;;;;14.41;77.17;99656.09;4981361;28;20257;-86
2021/06/05 02:41:07;;;;;;;10.50;9.60;;;;;;;14.43;77.70;99672.00;4980146;28;20226;-80
2021/06/05 02:43:36;;;;;;;10.10;9.30;;;;;;;14.43;77.96;99678.19;4980099;28;20273;-85
2021/06/05 02:46:17;;;;;;;10.43;9.47;;;;;;;14.41;77.89;99677.66;4995028;28;20237;-82
2021/06/05 02:48:52;;;;;;;10.40;9.50;;;;;;;14.42;78.20;99673.03;4979673;28;20606;-84
2021/06/05 02:51:27;;;;;;;10.57;9.70;;;;;;;14.35;78.18;99658.88;4964684;28;20594;-85
2021/06/05 02:53:55;;;;;;;11.53;10.53;;;;;;;14.31;78.46;99669.34;4995773;28;20312;-81
2021/06/05 02:56:24;;;;;;;11.27;10.30;;;;;;;14.31;79.11;99679.31;4979235;28;20233;-81
2021/06/05 02:58:52;;;;;;;11.43;10.43;;;;;;;14.29;78.98;99676.84;4995389;28;20230;-82
2021/06/05 03:01:23;;;;;;;10.87;10.07;;;;;;;14.28;78.72;99675.19;4995385;28;20230;-85
2021/06/05 03:03:51;;;;;;;10.97;9.87;;;;;;;14.26;79.02;99669.25;4995358;28;20242;-87
2021/06/05 03:06:19;;;;;;;11.10;10.10;;;;;;;14.22;79.25;99681.56;4979045;28;20234;-86
2021/06/05 03:08:46;;;;;;;10.97;9.97;;;;;;;14.15;78.92;99672.00;5011648;28;20233;-80
2021/06/05 03:11:17;;;;;;;11.13;10.20;;;;;;;14.19;79.00;99678.53;4979307;28;20229;-84
2021/06/05 03:13:48;;;;;;;11.53;10.53;;;;;;;14.16;79.21;99674.47;5011398;28;20229;-85
2021/06/05 03:16:17;;;;;;;11.53;10.43;;;;;;;14.14;78.99;99673.06;4994846;28;20288;-83
2021/06/05 03:18:48;;;;;;;11.03;10.03;;;;;;;14.21;79.01;99671.03;4964530;28;20304;-86
2021/06/05 03:21:19;;;;;;;10.63;9.73;;;;;;;14.22;79.07;99667.28;4995091;28;20229;-80
2021/06/05 03:23:50;;;;;;;10.67;9.67;;;;;;;14.27;78.74;99667.38;4980028;28;20284;-80
2021/06/05 03:26:27;;;;;;;10.93;10.03;;;;;;;14.39;78.21;99676.25;4983248;28;20239;-86
2021/06/05 03:28:55;;;;;;;11.47;10.57;;;;;;;14.41;78.35;99655.25;4982324;28;20238;-87
2021/06/05 03:31:23;;;;;;;11.40;10.30;;;;;;;14.50;78.00;99668.09;4982372;28;20230;-80
2021/06/05 03:33:51;;;;;;;11.33;10.53;;;;;;;14.52;77.81;99660.56;4998104;28;20642;-83
2021/06/05 03:36:21;;;;;;;11.13;10.33;;;;;;;14.58;77.99;99656.06;4998166;28;20528;-81
2021/06/05 03:38:50;;;;;;;11.30;10.50;;;;;;;14.63;77.98;99655.34;4998759;28;20247;-83
2021/06/05 03:41:30;;;;;;;11.30;10.40;;;;;;;14.72;77.86;99672.75;4983738;28;20236;-86
2021/06/05 03:43:58;;;;;;;10.77;9.97;;;;;;;14.70;78.00;99666.75;4982259;28;20230;-87
2021/06/05 03:46:27;;;;;;;11.87;10.73;;;;;;;14.82;78.09;99676.44;4982370;28;20576;-83
2021/06/05 03:48:59;;;;;;;11.83;10.93;;;;;;;14.88;77.66;99682.72;4983421;28;20237;-83
2021/06/05 03:51:26;;;;;;;11.50;10.50;;;;;;;14.91;77.67;99674.94;5014433;28;20235;-86
2021/06/05 03:53:53;;;;;;;11.17;10.20;;;;;;;14.96;77.42;99669.63;4981643;28;20232;-83
2021/06/05 03:56:21;;;;;;;11.17;10.17;;;;;;;15.66;76.45;99676.28;4981536;28;20264;-86
2021/06/05 03:58:49;;;;;;;11.53;10.37;;;;;;;17.09;71.21;99682.81;5001781;28;20524;-85
2021/06/05 04:01:23;;;;;;;10.73;9.90;;;;;;;18.86;64.59;99686.13;5002588;28;20669;-86
2021/06/05 04:03:53;;;;;;;10.63;9.63;;;;;;;20.15;59.41;99684.44;4986356;28;20287;-82
2021/06/05 04:06:20;;;;;;;9.43;8.73;;;;;;;20.69;57.37;99665.28;5017892;28;20230;-80
2021/06/05 04:08:48;;;;;;;9.30;8.60;;;;;;;20.89;55.79;99664.31;5002030;28;20223;-83
2021/06/05 04:11:15;;;;;;;9.40;8.67;;;;;;;21.07;55.88;99664.41;5017925;28;20250;-83
2021/06/05 04:13:42;;;;;;;9.73;9.00;;;;;;;21.24;54.47;99668.63;5018873;28;20230;-83
2021/06/05 04:16:09;;;;;;;9.40;8.60;;;;;;;21.44;54.26;99665.69;4985103;28;20532;-84
2021/06/05 04:18:38;;;;;;;9.83;9.03;;;;;;;21.56;54.11;99659.84;5001447;28;20231;-85
2021/06/05 04:21:07;;;;;;;9.47;8.77;;;;;;;21.76;53.65;99667.75;5001655;28;20284;-82
2021/06/05 04:23:34;;;;;;;9.80;8.90;;;;;;;22.22;52.14;99670.69;5001487;28;20231;-84
2021/06/05 04:26:00;;;;;;;9.77;8.90;;;;;;;22.43;50.68;99663.03;4985098;28;20711;-85
2021/06/05 04:28:28;;;;;;;9.23;8.63;;;;;;;22.65;50.37;99679.59;5001338;28;20222;-86
2021/06/05 04:30:56;;;;;;;9.33;8.50;;;;;;;22.94;49.52;99758.66;5017675;28;20306;-82
2021/06/05 04:33:25;;;;;;;9.60;8.70;;;;;;;22.78;50.30;99666.03;5000985;28;20232;-82
2021/06/05 04:35:53;;;;;;;9.63;8.83;;;;;;;22.56;50.77;99671.28;5000996;28;20320;-82
2021/06/05 04:38:20;;;;;;;9.47;8.77;;;;;;;22.27;52.13;99668.72;5000727;28;20306;-83
2021/06/05 04:40:47;;;;;;;9.73;8.83;;;;;;;22.00;52.82;99681.38;5018380;28;20228;-82
2021/06/05 04:43:15;;;;;;;9.83;9.10;;;;;;;21.61;53.66;99670.66;4984912;28;20334;-80
2021/06/05 04:45:42;;;;;;;9.30;8.43;;;;;;;21.47;54.05;99684.16;5000943;28;20231;-85
2021/06/05 04:48:10;;;;;;;9.00;8.30;;;;;;;21.02;55.09;99663.63;5000744;28;20601;-85
2021/06/05 04:50:38;;;;;;;10.00;9.30;;;;;;;20.89;56.08;99659.69;4984646;28;20245;-85
2021/06/05 04:53:05;;;;;;;9.30;8.50;;;;;;;20.77;56.97;99669.31;5001077;28;20241;-85
2021/06/05 04:55:33;;;;;;;9.27;8.50;;;;;;;20.74;57.49;99672.59;4984589;28;20291;-81
2021/06/05 04:58:01;;;;;;;9.63;8.90;;;;;;;20.70;57.62;99666.09;5000629;28;20312;-82
2021/06/05 05:00:36;;;;;;;9.57;8.77;;;;;;;20.74;57.54;99664.44;4984308;28;20225;-85
2021/06/05 05:03:05;;;;;;;9.70;8.90;;;;;;;20.74;57.70;99659.81;5000784;28;20250;-82
2021/06/05 05:05:32;;;;;;;9.10;8.50;;;;;;;20.79;58.06;99661.66;5000737;28;20248;-82
2021/06/05 05:07:59;;;;;;;9.73;8.93;;;;;;;20.87;57.83;99648.25;4984553;28;20590;-84
2021/06/05 05:10:32;;;;;;;9.90;9.10;;;;;;;21.03;57.80;99660.63;5000446;28;20298;-81
2021/06/05 05:12:59;;;;;;;10.37;9.30;;;;;;;21.06;57.76;99656.50;5000174;28;20236;-83
2021/06/05 05:15:28;;;;;;;9.50;8.70;;;;;;;21.16;57.06;99655.63;4984650;28;20231;-82
2021/06/05 05:17:55;;;;;;;9.30;8.60;;;;;;;21.22;56.99;99654.47;5000648;28;20226;-82
2021/06/05 05:20:27;;;;;;;9.87;9.10;;;;;;;21.30;57.20;99646.47;4999739;28;20233;-81
2021/06/05 05:22:54;;;;;;;9.47;8.67;;;;;;;21.43;56.88;99648.50;4984384;28;20615;-85
2021/06/05 05:25:21;;;;;;;8.90;8.30;;;;;;;21.70;55.82;99642.44;5000076;28;20236;-80
2021/06/05 05:27:48;;;;;;;8.43;7.83;;;;;;;21.92;55.23;99658.28;5016716;28;20324;-84
2021/06/05 05:30:19;;;;;;;8.63;7.90;;;;;;;22.26;53.98;99663.53;5015845;28;20264;-80
2021/06/05 05:32:46;;;;;;;8.80;8.00;;;;;;;22.35;53.63;99648.94;5000429;28;20230;-83
2021/06/05 05:35:14;;;;;;;8.50;7.73;;;;;;;22.39;52.86;99649.16;5000014;28;20231;-84
2021/06/05 05:37:42;;;;;;;10.10;7.77;;;;;;;22.80;51.82;99663.81;4999918;28;20234;-80
2021/06/05 05:40:10;;;;;;;8.13;7.50;;;;;;;23.12;51.25;99657.50;4999425;28;20239;-80
2021/06/05 05:42:37;;;;;;;8.33;7.53;;;;;;;23.33;50.36;99657.91;4999950;28;20294;-82
2021/06/05 05:45:05;;;;;;;9.43;7.60;;;;;;;23.51;49.77;99657.06;4983758;28;20312;-82
2021/06/05 05:47:32;;;;;;;8.15;7.55;;;;;;;23.73;49.47;99653.59;4999729;28;20238;-80
2021/06/05 05:49:59;;;;;;;9.05;8.23;;;;;;;23.87;49.10;99665.34;4999498;28;20264;-83
2021/06/05 05:52:26;;;;;;;8.47;7.77;;;;;;;23.91;48.69;99660.88;4983196;28;20229;-81
2021/06/05 05:54:52;;;;;;;8.38;7.68;;;;;;;24.00;48.77;99663.69;5015993;28;20792;-80
2021/06/05 05:57:20;;;;;;;8.18;7.47;;;;;;;24.00;48.64;99656.28;4999327;28;20231;-80
2021/06/05 05:59:46;;;;;;;7.75;7.15;;;;;;;24.08;48.42;99671.97;4999633;28;20287;-83
2021/06/05 06:02:13;;;;;;;8.38;7.68;;;;;;;24.24;47.94;99674.41;4999161;28;20654;-80
2021/06/05 06:04:40;;;;;;;7.97;7.38;;;;;;;24.23;47.87;99673.59;4999266;28;20305;-80
2021/06/05 06:07:07;;;;;;;7.93;7.22;;;;;;;24.38;47.84;99664.22;4999229;28;20235;-82
2021/06/05 06:09:34;;;;;;;8.07;7.35;;;;;;;24.25;47.42;99663.16;5015649;28;20238;-80
2021/06/05 06:12:00;;;;;;;8.30;7.50;;;;;;;24.02;47.14;99658.72;4998927;28;20237;-80
2021/06/05 06:14:27;;;;;;;8.82;8.00;;;;;;;24.24;46.93;99666.22;4999097;28;20305;-81
2021/06/05 06:16:54;;;;;;;7.78;7.07;;;;;;;24.03;47.21;99654.84;4999126;28;20234;-81
2021/06/05 06:19:21;;;;;;;7.85;7.18;;;;;;;23.75;48.22;99675.19;4998970;28;20585;-81
2021/06/05 06:21:48;;;;;;;8.35;7.68;;;;;;;23.58;48.67;99675.78;4999110;28;20581;-82
2021/06/05 06:24:15;;;;;;;8.20;7.50;;;;;;;23.36;49.61;99678.38;4998500;28;20270;-82
2021/06/05 06:26:43;;;;;;;8.20;7.40;;;;;;;22.86;51.46;99674.66;4983163;28;20230;-83
2021/06/05 06:29:18;;;;;;;8.30;7.70;;;;;;;22.74;51.07;99664.19;4998993;28;20253;-81
2021/06/05 06:31:47;;;;;;;8.65;7.97;;;;;;;22.67;51.64;99671.94;4998895;28;20230;-83
2021/06/05 06:34:16;;;;;;;8.32;7.63;;;;;;;22.70;51.53;99663.97;4982293;28;20242;-83
2021/06/05 06:36:43;;;;;;;9.88;8.85;;;;;;;22.94;50.67;99676.69;5015240;28;20279;-83
2021/06/05 06:39:11;;;;;;;8.60;7.85;;;;;;;22.83;50.66;99656.94;4998747;28;20313;-81
2021/06/05 06:41:38;;;;;;;8.93;8.07;;;;;;;23.15;49.99;99669.75;4998703;28;20592;-80
2021/06/05 06:44:07;;;;;;;9.07;8.07;;;;;;;23.23;49.94;99674.53;4998071;28;20245;-83
2021/06/05 06:46:40;;;;;;;9.57;8.77;;;;;;;23.36;49.88;99667.44;4998547;28;20226;-83
2021/06/05 06:49:08;;;;;;;9.70;8.65;;;;;;;23.48;49.16;99660.41;5014832;28;20241;-84
2021/06/05 06:51:36;;;;;;;8.85;8.18;;;;;;;23.72;48.33;99662.91;5014847;28;20316;-82
2021/06/05 06:54:06;;;;;;;9.32;8.63;;;;;;;23.98;47.66;99669.47;4998243;28;20226;-81
2021/06/05 06:56:34;;;;;;;8.95;8.25;;;;;;;24.07;46.89;99653.97;4982646;28;20258;-81
2021/06/05 06:59:01;;;;;;;9.38;8.25;;;;;;;24.30;46.93;99675.94;4998394;28;20238;-81
2021/06/05 07:01:27;;;;;;;8.95;8.30;;;;;;;24.31;46.96;99656.44;5014637;28;20284;-84
2021/06/05 07:03:55;;;;;;;9.63;8.82;;;;;;;24.58;46.74;99658.28;4998257;28;20225;-83
2021/06/05 07:06:25;;;;;;;8.80;8.00;;;;;;;24.80;46.12;99655.53;5014284;28;20541;-83
2021/06/05 07:08:54;;;;;;;9.60;8.65;;;;;;;24.85;45.72;99662.81;4998744;28;20325;-83
2021/06/05 07:11:25;;;;;;;9.32;8.45;;;;;;;24.74;46.54;99654.03;5014548;28;20575;-85
2021/06/05 07:13:52;;;;;;;9.02;8.32;;;;;;;24.73;46.03;99652.41;4982350;28;20538;-82
2021/06/05 07:16:19;;;;;;;8.85;8.05;;;;;;;25.03;44.91;99661.00;4997925;28;20227;-87
2021/06/05 07:18:47;;;;;;;8.48;7.70;;;;;;;25.25;44.26;99655.47;4982347;28;20228;-82
2021/06/05 07:21:15;;;;;;;8.50;7.90;;;;;;;25.74;43.44;99660.69;5014183;28;20263;-84
2021/06/05 07:23:42;;;;;;;7.72;7.10;;;;;;;25.82;42.22;99651.66;4998115;28;20241;-83
2021/06/05 07:26:14;;;;;;;10.60;7.93;;;;;;;26.21;42.29;99644.50;4965523;28;20245;-84
2021/06/05 07:28:44;;;;;;;8.27;7.57;;;;;;;27.04;40.89;99650.56;4998018;28;20231;-84
2021/06/05 07:31:27;;;;;;;8.05;7.45;;;;;;;27.51;39.95;99638.44;4981543;28;20259;-85
2021/06/05 07:33:54;;;;;;;8.40;7.70;;;;;;;27.53;39.74;99629.84;4982247;28;20238;-82
2021/06/05 07:36:24;;;;;;;7.55;6.95;;;;;;;27.71;40.03;99634.13;4997691;28;20345;-86
2021/06/05 07:38:51;;;;;;;7.50;7.00;;;;;;;27.64;40.25;99631.09;5014160;28;20533;-86
2021/06/05 07:41:18;;;;;;;7.47;6.78;;;;;;;27.61;40.15;99633.69;4997984;28;20594;-85
2021/06/05 07:43:45;;;;;;;8.02;7.32;;;;;;;28.02;39.76;99617.22;4981867;28;20240;-84
2021/06/05 07:46:12;;;;;;;8.35;7.75;;;;;;;27.95;38.95;99633.47;4997525;28;20537;-84
2021/06/05 07:48:39;;;;;;;9.18;8.35;;;;;;;26.92;42.44;99628.47;4981751;28;20228;-83
2021/06/05 07:51:07;;;;;;;8.95;8.15;;;;;;;26.97;42.77;99631.03;4997759;28;20222;-82
2021/06/05 07:53:34;;;;;;;8.32;7.72;;;;;;;27.19;42.32;99625.28;4981784;28;20233;-81
2021/06/05 07:56:02;;;;;;;8.35;7.75;;;;;;;27.19;42.56;99622.53;4981102;28;20232;-82
2021/06/05 07:58:28;;;;;;;9.25;8.38;;;;;;;26.31;43.61;99615.91;4997645;28;20693;-84
2021/06/05 08:00:56;;;;;;;8.90;8.20;;;;;;;26.24;43.95;99628.19;4998030;28;20277;-87
2021/06/05 08:03:23;;;;;;;8.73;8.10;;;;;;;25.96;44.04;99617.78;4997476;28;20279;-84
2021/06/05 08:05:49;;;;;;;9.00;8.27;;;;;;;25.79;44.69;99618.59;4981587;28;20234;-85
2021/06/05 08:08:16;;;;;;;8.95;8.02;;;;;;;25.90;44.12;99613.59;4997278;28;20238;-85
2021/06/05 08:10:44;;;;;;;8.43;7.72;;;;;;;26.13;44.40;99621.34;4997817;28;20312;-85
2021/06/05 08:13:11;;;;;;;8.30;7.57;;;;;;;26.53;44.31;99626.72;4997633;28;20232;-85
2021/06/05 08:15:41;;;;;;;9.25;8.45;;;;;;;26.51;43.93;99621.53;4981408;28;20320;-82
2021/06/05 08:18:10;;;;;;;9.15;8.45;;;;;;;26.03;45.01;99620.88;4997199;28;20260;-85
2021/06/05 08:20:46;;;;;;;9.13;8.38;;;;;;;25.91;45.51;99616.00;4997199;28;20229;-83
2021/06/05 08:23:13;;;;;;;8.43;7.72;;;;;;;26.28;44.87;99620.91;4997658;28;20516;-83
2021/06/05 08:25:40;;;;;;;9.25;8.48;;;;;;;26.28;43.96;99612.66;4997436;28;20262;-87
2021/06/05 08:28:08;;;;;;;9.05;8.18;;;;;;;25.89;45.02;99606.50;4980654;28;20241;-85
2021/06/05 08:30:39;;;;;;;8.77;7.93;;;;;;;25.92;45.15;99603.91;4978505;28;20323;-84
2021/06/05 08:33:08;;;;;;;8.07;7.28;;;;;;;26.22;44.92;99602.97;4995794;28;20272;-81
2021/06/05 08:35:36;;;;;;;8.00;7.35;;;;;;;26.61;43.77;99595.66;4980196;28;20240;-84
2021/06/05 08:38:05;;;;;;;8.07;7.28;;;;;;;27.22;43.27;99596.31;4996457;28;20602;-83
2021/06/05 08:41:05;;;;;;;8.30;7.60;;;;;;;27.21;42.34;99605.69;5013716;28;20229;-86
2021/06/05 08:43:52;;;;;;;7.95;7.20;;;;;;;27.53;42.21;99599.56;4982490;28;20232;-83
2021/06/05 08:46:25;;;;;;;8.00;7.25;;;;;;;27.81;41.20;99597.94;5000394;28;20223;-86
2021/06/05 08:48:55;;;;;;;8.35;7.70;;;;;;;27.45;41.48;99598.47;4999448;28;20306;-84
2021/06/05 08:51:45;;;;;;;8.32;7.43;;;;;;;27.21;42.06;99600.19;5000787;28;20230;-86
2021/06/05 08:54:38;;;;;;;9.02;7.70;;;;;;;27.70;41.85;99606.94;4991314;28;20243;-82
2021/06/05 08:57:25;;;;;;;7.63;6.93;;;;;;;27.74;41.93;99591.34;4994187;28;20240;-82
2021/06/05 08:59:52;;;;;;;8.10;7.40;;;;;;;28.30;40.35;99606.50;5000431;28;20227;-81
2021/06/05 09:02:23;;;;;;;8.15;7.35;;;;;;;28.32;40.41;99585.72;4984128;28;20246;-82
2021/06/05 09:04:50;;;;;;;8.30;7.70;;;;;;;27.91;40.52;99605.81;5000649;28;20234;-85
2021/06/05 09:07:17;;;;;;;8.43;7.75;;;;;;;28.13;40.29;99587.38;4984355;28;20226;-83
2021/06/05 09:09:48;;;;;;;8.05;7.40;;;;;;;28.37;39.11;99588.28;5000372;28;20673;-85
2021/06/05 09:12:16;;;;;;;8.25;7.55;;;;;;;28.13;40.33;99599.22;4999849;28;20235;-83
2021/06/05 09:14:44;;;;;;;9.02;8.25;;;;;;;27.23;41.51;99592.44;5000283;28;20250;-85
2021/06/05 09:17:30;;;;;;;9.55;8.68;;;;;;;27.19;41.23;99597.78;4984261;28;20241;-83
2021/06/05 09:20:33;;;;;;;8.90;8.00;;;;;;;27.43;43.03;99602.69;4983952;28;20237;-82
2021/06/05 09:23:02;;;;;;;8.43;7.78;;;;;;;27.39;43.23;99590.75;5000469;28;20225;-82
2021/06/05 09:25:34;;;;;;;9.30;8.50;;;;;;;26.87;43.75;99601.13;4983788;28;20349;-82
2021/06/05 09:28:15;;;;;;;9.35;8.52;;;;;;;26.88;43.84;99599.97;4999619;28;20634;-85
2021/06/05 09:30:43;;;;;;;9.30;8.40;;;;;;;27.01;43.87;99588.81;5000022;28;20224;-84
2021/06/05 09:33:13;;;;;;;9.93;9.07;;;;;;;27.02;43.82;99589.59;4983420;28;20323;-83
2021/06/05 09:35:44;;;;;;;10.25;9.35;;;;;;;26.95;43.21;99586.56;5015405;28;20322;-81
2021/06/05 09:38:24;;;;;;;10.00;9.00;;;;;;;27.30;42.38;99595.44;4983728;28;20235;-84
2021/06/05 09:41:02;;;;;;;8.93;8.13;;;;;;;27.59;42.47;99595.50;4998417;28;20510;-83
2021/06/05 09:43:29;;;;;;;9.52;8.32;;;;;;;27.76;42.84;99583.59;4983747;28;20243;-85
2021/06/05 09:46:19;;;;;;;9.68;8.85;;;;;;;27.95;40.82;99561.88;5000002;28;20342;-83
2021/06/05 09:48:49;;;;;;;8.15;7.45;;;;;;;28.03;42.02;99570.09;4999284;28;20230;-82
2021/06/05 09:51:34;;;;;;;8.88;8.18;;;;;;;27.99;40.75;99571.91;4983258;28;20231;-86
2021/06/05 09:54:11;;;;;;;11.80;8.65;;;;;;;28.10;41.29;99568.72;4999223;28;20235;-85
2021/06/05 09:56:41;;;;;;;8.90;8.02;;;;;;;28.37;41.43;99571.75;4997215;28;20226;-85
2021/06/05 09:59:28;;;;;;;8.60;7.90;;;;;;;28.59;41.21;99564.25;5001731;28;20247;-81
2021/06/05 10:01:59;;;;;;;9.63;8.65;;;;;;;28.78;39.98;99570.06;5017907;28;20237;-87
2021/06/05 10:04:31;;;;;;;8.32;7.53;;;;;;;28.65;40.21;99565.66;5007083;28;20233;-82
2021/06/05 10:06:59;;;;;;;9.18;8.40;;;;;;;28.46;39.96;99568.94;5034966;28;20246;-81
2021/06/05 10:09:26;;;;;;;8.90;8.10;;;;;;;28.24;40.15;99572.03;5002372;28;20238;-85
2021/06/05 10:12:13;;;;;;;9.65;8.90;;;;;;;27.98;40.78;99567.53;5017402;28;20230;-85
2021/06/05 10:15:01;;;;;;;9.45;8.52;;;;;;;27.80;42.17;99557.81;4982786;28;20230;-85
2021/06/05 10:17:56;;;;;;;8.52;7.82;;;;;;;28.30;40.17;99566.00;4982882;28;20231;-82
2021/06/05 10:20:24;;;;;;;9.15;8.35;;;;;;;28.63;39.30;99560.47;4982807;28;20296;-85
2021/06/05 10:22:55;;;;;;;8.85;7.97;;;;;;;28.52;40.50;99550.22;5016078;28;20219;-87
2021/06/05 10:25:32;;;;;;;9.40;8.63;;;;;;;28.14;40.20;99558.69;4998962;28;20234;-84
2021/06/05 10:28:11;;;;;;;8.30;7.60;;;;;;;28.43;40.12;99564.88;4982473;28;20238;-81
2021/06/05 10:30:47;;;;;;;7.82;7.18;;;;;;;28.65;39.99;99546.38;4995154;28;20250;-83
2021/06/05 10:33:40;;;;;;;8.23;7.47;;;;;;;29.18;38.57;99561.94;5035740;28;20244;-82
2021/06/05 10:36:16;;;;;;;9.50;8.00;;;;;;;29.05;39.33;99541.03;4994128;28;20221;-82
2021/06/05 10:38:46;;;;;;;8.48;7.78;;;;;;;28.64;38.26;99564.84;5018538;28;20236;-82
2021/06/05 10:41:17;;;;;;;7.93;7.28;;;;;;;29.15;37.71;99551.63;5018079;28;20641;-85
2021/06/05 10:43:44;;;;;;;8.20;7.53;;;;;;;29.54;37.06;99553.69;5018019;28;20265;-86
2021/06/05 10:46:23;;;;;;;8.27;7.47;;;;;;;29.82;36.93;99545.44;5001319;28;20254;-84
2021/06/05 10:48:51;;;;;;;8.27;7.55;;;;;;;30.03;36.51;99546.13;5001659;28;20529;-81
2021/06/05 10:51:26;;;;;;;9.05;7.70;;;;;;;30.28;36.31;99544.06;5018190;28;20254;-82
2021/06/05 10:54:06;;;;;;;8.30;7.70;;;;;;;30.49;36.11;99541.91;5001598;28;20238;-81
2021/06/05 10:56:42;;;;;;;7.38;6.68;;;;;;;30.61;36.50;99533.53;5001150;28;20288;-82
2021/06/05 10:59:40;;;;;;;7.90;7.20;;;;;;;30.89;34.60;99535.44;5001792;28;20250;-84
2021/06/05 11:02:07;;;;;;;8.52;7.82;;;;;;;30.36;34.62;99526.53;4998366;28;20234;-85
2021/06/05 11:04:41;;;;;;;7.45;6.85;;;;;;;30.25;34.63;99528.19;5014628;28;20241;-84
2021/06/05 11:07:23;;;;;;;8.30;7.60;;;;;;;29.85;36.36;99521.88;4999003;28;20236;-86
2021/06/05 11:09:52;;;;;;;8.18;7.55;;;;;;;29.90;36.04;99511.41;4999011;28;20631;-81
2021/06/05 11:12:19;;;;;;;7.47;6.88;;;;;;;29.71;36.06;99522.25;5017384;28;20309;-81
2021/06/05 11:14:47;;;;;;;7.63;6.90;;;;;;;30.00;35.68;99512.88;5017852;28;20222;-85
2021/06/05 11:17:33;;;;;;;7.63;7.03;;;;;;;30.14;35.86;99511.31;5001699;28;20242;-87
2021/06/05 11:20:06;;;;;;;7.63;6.93;;;;;;;30.61;34.64;99510.63;5001621;28;20229;-86
2021/06/05 11:22:52;;;;;;;7.53;7.03;;;;;;;30.35;35.34;99513.88;5034980;28;20293;-82
2021/06/05 11:25:40;;;;;;;7.53;6.82;;;;;;;30.73;34.17;99504.22;5016943;28;20280;-83
2021/06/05 11:28:49;;;;;;;7.95;7.35;;;;;;;30.75;33.89;99510.97;5017559;28;20244;-83
2021/06/05 11:31:39;;;;;;;7.63;7.03;;;;;;;30.38;34.76;99506.81;5033603;28;20234;-81
2021/06/05 11:34:08;;;;;;;7.30;6.80;;;;;;;30.94;35.64;99502.78;5000087;28;20638;-81
2021/06/05 11:36:44;;;;;;;7.82;7.15;;;;;;;31.10;34.79;99496.47;5035027;28;20283;-82
2021/06/05 11:39:31;;;;;;;6.70;6.03;;;;;;;30.97;34.15;99490.19;5016062;28;20234;-83
2021/06/05 11:42:19;;;;;;;6.97;6.47;;;;;;;31.34;33.97;99494.28;5034077;28;20268;-86
2021/06/05 11:44:48;;;;;;;7.70;6.95;;;;;;;31.54;33.11;99505.38;5007656;28;20233;-87
2021/06/05 11:47:18;;;;;;;7.30;6.70;;;;;;;31.86;32.84;99496.63;5001382;28;20257;-87
2021/06/05 11:49:46;;;;;;;7.60;6.85;;;;;;;31.50;31.61;99496.97;5017281;28;20230;-87
2021/06/05 11:52:28;;;;;;;7.20;6.50;;;;;;;31.59;31.51;99483.00;5017136;28;20309;-88